메인 페이지
METAR-TAF:

METAR-TAF

공항 :

자유주의, 캔자스, 미국

위도: 37-03N, 경도: 100-58W, 고도: 879m

현재 날씨관측

예보는 19분 전, 18:56시(UTC)에 발표되었습니다.
32kt, 순간 최대 풍속 46kt
온도 7°C
습도 39%
기압 1018 hPa
시정: 16.1km
맑음

METAR: KLBL 131856Z AUTO 01032G46KT 10SM CLR 07/M06 A3007 RMK AO2 PK WND 01046/1851 SLP196 T00671056

시각: 13:15 (19:15 UTC)

예보

예보는 1 시간 53분 전, 17:22시(UTC)에 발표되었습니다.
예보 대상 시간: 13일 18시부터 14일 18시까지 (UTC)
32kt, 순간 최대 풍속 42kt
시정: 10km
고도 25000ft 상공 구름 보통
14일 0000시부터 (UTC)
22kt, 순간 최대 풍속 32kt
시정: 10km
맑음
14일 0200시부터 (UTC)
북북서16kt
시정: 10km
맑음

TAF: KLBL 131722Z 1318/1418 36032G42KT P6SM SCT250 FM140000 35022G32KT P6SM SKC FM140200 33016KT P6SM SKC

4,000개 이상의 공항 관측 자료 및 예보 (METAR 및 TAF 보고).

지도상에서 검색 가능한 기상관측소가 노란 점과 빨간 점으로 표시되어 있습니다.

기상관측소 명을 보려면 표시 위로 마우스를 이동하세요.

날씨 관측과 예보를 보려면 클릭하세요.

지도 변경 : 확대하려면 엑스 표시가 있는 녹색 버튼, 축소하려면 빼기 표시가 있는 녹색 버튼, 다음 페이지의 지도를 보려면 녹색 화살표를 클릭하세요.


METAR-TAF: